Time;durP1;ratioP1;P1;durP2;ratioP2;P2;SDS_P1;SDS_P2;PMS_P1;PMS_P2;Temp;Humidity;BMP_temperature;BMP_pressure;BME280_temperature;BME280_humidity;BME280_pressure;Samples;Min_cycle;Max_cycle;Signal;HPM_P1;HPM_P2
2021/03/19 00:00:22;;;;;;;5.75;2.90;;;1.60;72.40;;;;;;5076143;28;20302;-73
2021/03/19 00:02:50;;;;;;;5.57;2.55;;;1.50;72.90;;;;;;5076356;28;20024;-73
2021/03/19 00:05:16;;;;;;;5.07;2.80;;;1.60;72.40;;;;;;5076276;28;20078;-73
2021/03/19 00:07:44;;;;;;;4.03;3.03;;;1.70;72.40;;;;;;5076392;28;20035;-73
2021/03/19 00:10:13;;;;;;;6.63;2.70;;;1.80;72.60;;;;;;5079262;28;20024;-73
2021/03/19 00:12:39;;;;;;;4.68;2.83;;;1.90;72.20;;;;;;5079600;28;20045;-73
2021/03/19 00:15:07;;;;;;;3.67;2.72;;;1.90;72.20;;;;;;5079866;28;20020;-73
2021/03/19 00:17:32;;;;;;;3.53;2.58;;;2.00;72.50;;;;;;5079946;28;20036;-73
2021/03/19 00:19:58;;;;;;;3.58;2.65;;;2.00;72.50;;;;;;5079799;28;20027;-73
2021/03/19 00:22:24;;;;;;;6.28;2.90;;;2.00;72.70;;;;;;5079480;28;20036;-73
2021/03/19 00:24:50;;;;;;;4.28;2.70;;;2.00;72.90;;;;;;5079280;28;20340;-73
2021/03/19 00:27:16;;;;;;;3.95;2.72;;;1.90;73.70;;;;;;5079705;28;20032;-73
2021/03/19 00:29:42;;;;;;;3.95;2.90;;;1.90;74.20;;;;;;5079408;28;20078;-73
2021/03/19 00:32:07;;;;;;;4.60;3.10;;;2.00;75.00;;;;;;5079624;28;20039;-73
2021/03/19 00:34:33;;;;;;;3.10;2.72;;;2.00;74.70;;;;;;5079527;28;20363;-73
2021/03/19 00:36:59;;;;;;;3.60;2.88;;;2.00;75.10;;;;;;5079262;28;20094;-73
2021/03/19 00:39:25;;;;;;;3.35;2.55;;;2.00;74.90;;;;;;5061470;28;20027;-73
2021/03/19 00:41:52;;;;;;;5.88;2.88;;;1.90;74.80;;;;;;5079209;28;20024;-73
2021/03/19 00:44:17;;;;;;;4.90;3.10;;;1.80;75.90;;;;;;5079070;28;20103;-73
2021/03/19 00:46:43;;;;;;;4.22;2.80;;;1.70;76.90;;;;;;5079059;28;20103;-73
2021/03/19 00:49:08;;;;;;;5.07;3.17;;;1.70;76.90;;;;;;5061336;28;20025;-73
2021/03/19 00:51:34;;;;;;;4.10;2.70;;;1.80;77.30;;;;;;5079254;28;20029;-73
2021/03/19 00:54:00;;;;;;;3.25;2.58;;;1.90;76.50;;;;;;5078818;28;20070;-73
2021/03/19 00:56:25;;;;;;;3.38;2.70;;;1.90;76.00;;;;;;5078855;28;20089;-73
2021/03/19 00:58:51;;;;;;;3.85;2.88;;;1.90;76.30;;;;;;5078986;28;20025;-73
2021/03/19 01:01:17;;;;;;;3.42;2.90;;;1.90;76.50;;;;;;5078784;28;20035;-73
2021/03/19 01:03:42;;;;;;;3.97;3.10;;;1.90;76.50;;;;;;5078706;28;20021;-73
2021/03/19 01:06:09;;;;;;;3.38;2.63;;;2.00;76.10;;;;;;5078709;28;20029;-73
2021/03/19 01:08:35;;;;;;;4.43;3.20;;;2.20;76.70;;;;;;5078807;28;20031;-73
2021/03/19 01:11:02;;;;;;;4.47;3.08;;;2.20;75.50;;;;;;5078872;28;20324;-73
2021/03/19 01:13:28;;;;;;;4.85;3.33;;;2.20;76.60;;;;;;5078491;28;20035;-73
2021/03/19 01:15:54;;;;;;;3.55;3.15;;;2.30;77.30;;;;;;5078525;28;20028;-73
2021/03/19 01:18:23;;;;;;;5.53;2.95;;;2.40;77.80;;;;;;5078422;28;20434;-73
2021/03/19 01:20:49;;;;;;;4.47;3.33;;;2.30;78.60;;;;;;5059634;28;20025;-73
2021/03/19 01:23:16;;;;;;;4.38;3.58;;;2.30;78.60;;;;;;5078315;28;20343;-73
2021/03/19 01:25:42;;;;;;;3.92;3.40;;;2.20;79.80;;;;;;5078630;28;20033;-73
2021/03/19 01:28:08;;;;;;;4.40;3.38;;;2.10;80.70;;;;;;5078314;28;20021;-73
2021/03/19 01:30:37;;;;;;;4.50;3.80;;;2.00;81.80;;;;;;5078289;28;20077;-73
2021/03/19 01:33:03;;;;;;;5.07;4.25;;;2.10;82.30;;;;;;5078137;28;20086;-73
2021/03/19 01:35:31;;;;;;;5.28;4.65;;;2.10;82.60;;;;;;5078163;28;20378;-73
2021/03/19 01:37:57;;;;;;;5.20;4.22;;;2.00;83.50;;;;;;5078089;28;20025;-73
2021/03/19 01:40:26;;;;;;;5.80;4.07;;;2.00;83.70;;;;;;5060289;28;20027;-73
2021/03/19 01:43:12;;;;;;;6.50;4.45;;;2.00;84.10;;;;;;5060219;28;20031;-73
2021/03/19 01:46:15;;;;;;;6.75;5.65;;;2.00;83.80;;;;;;5078032;28;20024;-73
2021/03/19 01:49:18;;;;;;;6.40;5.53;;;1.90;85.60;;;;;;5077977;28;20020;-73
2021/03/19 01:52:21;;;;;;;5.22;4.38;;;1.80;86.30;;;;;;5077736;28;20040;-73
2021/03/19 01:55:24;;;;;;;6.15;5.15;;;1.70;86.20;;;;;;5077668;28;20150;-73
2021/03/19 01:58:27;;;;;;;6.78;4.65;;;1.50;86.40;;;;;;5077720;28;20032;-73
2021/03/19 02:01:30;;;;;;;6.40;4.50;;;1.60;86.80;;;;;;5077649;28;20020;-73
2021/03/19 02:04:33;;;;;;;5.35;4.55;;;1.70;86.20;;;;;;5077537;28;20060;-72
2021/03/19 02:07:36;;;;;;;5.97;4.75;;;1.60;86.50;;;;;;5077529;28;20052;-73
2021/03/19 02:10:39;;;;;;;6.68;5.00;;;1.70;86.30;;;;;;5077446;28;20028;-73
2021/03/19 02:13:42;;;;;;;6.45;5.28;;;1.70;85.40;;;;;;5077342;28;20029;-73
2021/03/19 02:16:45;;;;;;;5.82;4.68;;;1.70;84.80;;;;;;5059639;28;20033;-73
2021/03/19 02:19:48;;;;;;;6.30;5.28;;;1.80;85.80;;;;;;5077353;28;20036;-73
2021/03/19 02:22:51;;;;;;;5.70;4.88;;;1.80;85.60;;;;;;5059473;28;20052;-73
2021/03/19 02:25:54;;;;;;;6.43;5.00;;;1.90;86.10;;;;;;5077065;28;20482;-73
2021/03/19 02:28:57;;;;;;;6.25;5.07;;;2.00;85.60;;;;;;5077166;28;20024;-73
2021/03/19 02:31:45;;;;;;;4.88;4.25;;;2.10;85.40;;;;;;5077163;28;20343;-73
2021/03/19 02:34:10;;;;;;;5.10;4.47;;;2.20;85.60;;;;;;5076925;28;20028;-73
2021/03/19 02:36:36;;;;;;;6.47;5.03;;;2.20;85.40;;;;;;5076954;28;20023;-73
2021/03/19 02:39:02;;;;;;;8.30;5.35;;;2.20;85.10;;;;;;5077071;28;20027;-73
2021/03/19 02:41:28;;;;;;;6.85;5.05;;;2.10;85.40;;;;;;5076911;28;20021;-73
2021/03/19 02:43:54;;;;;;;6.32;4.93;;;2.00;84.60;;;;;;5077081;28;20028;-73
2021/03/19 02:46:19;;;;;;;6.13;4.97;;;2.00;86.30;;;;;;5076988;28;20024;-73
2021/03/19 02:48:45;;;;;;;5.30;4.65;;;2.00;85.40;;;;;;5076889;28;20328;-73
2021/03/19 02:51:11;;;;;;;6.55;5.13;;;2.00;85.50;;;;;;5076864;28;20024;-73
2021/03/19 02:53:37;;;;;;;7.00;4.82;;;1.90;81.50;;;;;;5076997;28;20032;-73
2021/03/19 02:56:09;;;;;;;6.80;5.32;;;1.80;81.70;;;;;;5076775;28;20033;-73
2021/03/19 02:58:34;;;;;;;7.35;5.50;;;1.80;84.60;;;;;;5076844;28;20028;-73
2021/03/19 03:01:01;;;;;;;6.47;5.00;;;1.70;83.80;;;;;;5076988;28;20024;-73
2021/03/19 03:03:27;;;;;;;6.82;4.60;;;1.80;83.10;;;;;;5076630;28;20022;-73
2021/03/19 03:05:53;;;;;;;5.57;4.90;;;1.90;83.00;;;;;;5076965;28;20020;-73
2021/03/19 03:08:21;;;;;;;5.93;4.88;;;1.90;82.20;;;;;;5076657;28;20367;-73
2021/03/19 03:10:49;;;;;;;6.47;5.00;;;1.80;81.90;;;;;;5076916;28;20021;-73
2021/03/19 03:13:15;;;;;;;5.22;4.32;;;1.70;82.30;;;;;;5076546;28;20100;-73
2021/03/19 03:15:42;;;;;;;6.70;5.38;;;1.60;82.70;;;;;;5076847;28;20028;-73
2021/03/19 03:18:10;;;;;;;6.93;4.18;;;1.60;82.60;;;;;;5076678;28;20108;-73
2021/03/19 03:20:47;;;;;;;4.07;3.13;;;1.50;81.20;;;;;;5076604;28;20031;-73
2021/03/19 03:23:14;;;;;;;5.07;3.10;;;1.50;80.40;;;;;;5076317;28;20048;-73
2021/03/19 03:25:40;;;;;;;3.60;2.95;;;1.50;80.00;;;;;;5076482;28;20435;-73
2021/03/19 03:28:07;;;;;;;3.40;2.90;;;1.50;79.00;;;;;;5076496;28;20074;-73
2021/03/19 03:30:43;;;;;;;4.93;3.47;;;1.50;78.60;;;;;;5076767;28;20103;-73
2021/03/19 03:33:09;;;;;;;;;;;1.50;79.00;;;;;;5076952;28;20036;-73
2021/03/19 03:35:36;;;;;;;5.47;3.50;;;1.50;79.50;;;;;;5076424;28;19904;-73
2021/03/19 03:38:04;;;;;;;4.32;3.30;;;1.50;79.60;;;;;;5076524;28;20424;-73
2021/03/19 03:40:39;;;;;;;4.43;3.67;;;1.50;79.00;;;;;;5076273;28;20465;-73
2021/03/19 03:43:06;;;;;;;5.40;4.75;;;1.50;79.10;;;;;;5076592;28;20046;-73
2021/03/19 03:45:32;;;;;;;4.88;4.10;;;1.50;79.10;;;;;;5080254;28;20104;-73
2021/03/19 03:47:58;;;;;;;5.78;4.40;;;1.60;78.70;;;;;;5080181;28;20371;-73
2021/03/19 03:50:26;;;;;;;4.35;3.55;;;1.60;79.20;;;;;;5080169;28;20029;-73
2021/03/19 03:52:52;;;;;;;3.55;3.22;;;1.40;79.70;;;;;;5080347;28;20040;-73
2021/03/19 03:55:19;;;;;;;5.00;4.07;;;1.40;78.80;;;;;;5079987;28;20328;-73
2021/03/19 03:57:45;;;;;;;5.65;3.78;;;1.40;79.20;;;;;;5079888;28;20420;-73
2021/03/19 04:00:14;;;;;;;4.60;3.72;;;1.30;79.30;;;;;;5080171;28;20099;-73
2021/03/19 04:02:39;;;;;;;4.40;3.35;;;1.30;79.60;;;;;;5079789;28;20024;-73
2021/03/19 04:05:08;;;;;;;6.30;4.18;;;1.30;78.70;;;;;;5080036;28;20111;-73
2021/03/19 04:07:35;;;;;;;5.10;3.75;;;1.30;79.10;;;;;;5062905;28;20434;-73
2021/03/19 04:10:01;;;;;;;5.50;4.32;;;1.30;79.70;;;;;;5079832;28;20079;-73
2021/03/19 04:12:27;;;;;;;5.60;4.72;;;1.30;80.30;;;;;;5079823;28;20024;-73
2021/03/19 04:14:52;;;;;;;5.35;4.18;;;1.30;80.10;;;;;;5079900;28;20119;-73
2021/03/19 04:17:29;;;;;;;5.88;4.55;;;1.30;80.60;;;;;;5079854;28;20396;-73
2021/03/19 04:19:57;;;;;;;5.35;4.15;;;1.20;80.40;;;;;;5079595;28;20116;-73
2021/03/19 04:22:24;;;;;;;8.15;4.70;;;1.20;80.20;;;;;;5079539;28;20024;-73
2021/03/19 04:24:52;;;;;;;6.10;4.90;;;1.10;80.00;;;;;;5079282;28;20060;-73
2021/03/19 04:27:25;;;;;;;5.95;4.70;;;1.00;81.00;;;;;;5079459;28;20104;-73
2021/03/19 04:29:53;;;;;;;5.22;4.32;;;0.90;82.50;;;;;;5079418;28;20419;-73
2021/03/19 04:32:19;;;;;;;6.25;5.13;;;0.80;83.10;;;;;;5079639;28;20025;-73
2021/03/19 04:34:45;;;;;;;6.78;5.22;;;0.80;83.10;;;;;;5079604;28;20420;-73
2021/03/19 04:37:12;;;;;;;6.68;5.13;;;0.70;82.50;;;;;;5061777;28;20021;-73
2021/03/19 04:39:42;;;;;;;7.43;5.25;;;0.60;82.90;;;;;;5079497;28;20029;-73
2021/03/19 04:42:08;;;;;;;8.55;5.47;;;0.50;83.40;;;;;;5079458;28;20025;-73
2021/03/19 04:44:38;;;;;;;7.43;5.95;;;0.50;83.50;;;;;;5079103;28;20032;-73
2021/03/19 04:47:05;;;;;;;7.10;5.65;;;0.40;84.70;;;;;;5079142;28;20071;-73
2021/03/19 04:49:32;;;;;;;9.73;5.63;;;0.40;84.60;;;;;;5079069;28;20081;-72
2021/03/19 04:51:58;;;;;;;9.70;6.97;;;0.30;84.10;;;;;;5079031;28;20071;-73
2021/03/19 04:54:24;;;;;;;6.63;5.72;;;0.30;83.40;;;;;;5079298;28;20028;-73
2021/03/19 04:56:50;;;;;;;6.32;5.05;;;0.20;83.70;;;;;;5078852;28;20159;-73
2021/03/19 04:59:15;;;;;;;5.75;4.93;;;0.20;83.90;;;;;;5078897;28;20478;-73
2021/03/19 05:02:01;;;;;;;7.78;5.10;;;0.20;83.30;;;;;;5078862;28;20025;-73
2021/03/19 05:04:27;;;;;;;5.82;4.82;;;0.20;84.00;;;;;;5078606;28;20033;-73
2021/03/19 05:07:02;;;;;;;6.90;5.45;;;0.20;83.90;;;;;;5078768;28;20320;-73
2021/03/19 05:09:29;;;;;;;7.93;5.30;;;0.20;83.80;;;;;;5078717;28;20025;-73
2021/03/19 05:11:55;;;;;;;6.10;5.38;;;0.20;83.60;;;;;;5078651;28;20408;-73
2021/03/19 05:14:21;;;;;;;7.55;5.00;;;0.20;84.10;;;;;;5078771;28;20032;-73
2021/03/19 05:16:47;;;;;;;7.35;5.45;;;0.20;84.50;;;;;;5078499;28;20028;-73
2021/03/19 05:19:14;;;;;;;7.07;4.93;;;0.20;84.00;;;;;;5078529;28;20370;-73
2021/03/19 05:21:40;;;;;;;6.75;4.97;;;0.20;84.10;;;;;;5078565;28;20074;-73
2021/03/19 05:24:06;;;;;;;8.02;5.32;;;0.20;83.90;;;;;;5060501;28;20428;-73
2021/03/19 05:26:32;;;;;;;7.05;5.20;;;0.20;83.80;;;;;;5078364;28;20029;-73
2021/03/19 05:28:58;;;;;;;6.28;5.22;;;0.20;83.80;;;;;;5078631;28;20025;-73
2021/03/19 05:31:24;;;;;;;7.28;4.88;;;0.20;83.10;;;;;;5078576;28;20082;-73
2021/03/19 05:33:54;;;;;;;6.38;4.80;;;0.20;82.70;;;;;;5078085;28;20052;-73
2021/03/19 05:36:24;;;;;;;6.35;5.03;;;0.30;81.80;;;;;;5060414;28;20028;-73
2021/03/19 05:38:51;;;;;;;7.90;4.63;;;0.50;80.50;;;;;;5060331;28;20028;-73
2021/03/19 05:41:19;;;;;;;8.45;4.57;;;0.60;78.70;;;;;;5078055;28;20091;-73
2021/03/19 05:44:03;;;;;;;5.63;4.45;;;0.80;77.90;;;;;;5077952;28;20217;-73
2021/03/19 05:46:35;;;;;;;5.60;4.53;;;0.90;77.40;;;;;;5077972;28;20016;-73
2021/03/19 05:49:10;;;;;;;6.80;4.38;;;1.00;77.90;;;;;;5078045;28;20100;-72
2021/03/19 05:51:49;;;;;;;5.47;4.35;;;1.10;77.60;;;;;;5060092;28;20021;-73
2021/03/19 05:54:38;;;;;;;5.20;4.20;;;1.20;76.80;;;;;;5078159;28;20036;-73
2021/03/19 05:57:04;;;;;;;6.90;4.30;;;1.30;76.10;;;;;;5077960;28;20317;-73
2021/03/19 05:59:31;;;;;;;5.45;4.05;;;1.40;75.60;;;;;;5077701;28;20055;-73
2021/03/19 06:01:57;;;;;;;6.25;4.72;;;1.60;74.60;;;;;;5077677;28;20100;-73
2021/03/19 06:04:27;;;;;;;6.55;4.13;;;1.70;74.70;;;;;;5077550;28;20056;-73
2021/03/19 06:07:02;;;;;;;5.05;4.15;;;1.80;74.40;;;;;;5077038;28;20046;-73
2021/03/19 06:09:30;;;;;;;5.32;4.10;;;1.90;73.90;;;;;;5077681;28;20024;-73
2021/03/19 06:12:09;;;;;;;6.68;4.63;;;2.00;72.60;;;;;;5077693;28;20430;-73
2021/03/19 06:14:54;;;;;;;7.25;4.47;;;2.10;73.00;;;;;;5077387;28;20074;-73
2021/03/19 06:17:30;;;;;;;4.97;3.63;;;2.30;71.80;;;;;;5077548;28;20024;-73
2021/03/19 06:20:07;;;;;;;3.83;3.22;;;2.30;70.20;;;;;;5077615;28;20105;-73
2021/03/19 06:22:41;;;;;;;4.15;3.25;;;2.40;69.60;;;;;;5077502;28;20024;-73
2021/03/19 06:25:19;;;;;;;5.18;3.45;;;2.50;69.30;;;;;;5077418;28;20320;-73
2021/03/19 06:27:57;;;;;;;4.85;3.78;;;2.60;69.10;;;;;;5077452;28;20081;-73
2021/03/19 06:30:40;;;;;;;6.05;3.53;;;2.70;69.70;;;;;;5059485;28;20428;-73
2021/03/19 06:33:26;;;;;;;5.68;4.25;;;2.90;67.80;;;;;;5077234;28;20028;-73
2021/03/19 06:36:17;;;;;;;4.57;3.83;;;3.00;68.40;;;;;;5059443;28;20041;-73
2021/03/19 06:39:04;;;;;;;4.97;3.90;;;3.20;68.30;;;;;;5077127;28;20029;-73
2021/03/19 06:41:33;;;;;;;4.13;3.25;;;3.40;68.40;;;;;;5077288;28;20341;-73
2021/03/19 06:44:33;;;;;;;4.18;3.30;;;3.40;66.00;;;;;;5076954;28;20028;-73
2021/03/19 06:47:02;;;;;;;5.50;3.38;;;3.40;69.30;;;;;;5033776;28;20032;-73
2021/03/19 06:49:29;;;;;;;5.80;3.65;;;3.60;67.60;;;;;;5076873;28;20032;-73
2021/03/19 06:52:15;;;;;;;3.83;3.20;;;3.70;67.30;;;;;;5076861;28;20032;-73
2021/03/19 06:54:59;;;;;;;4.23;3.23;;;3.80;66.80;;;;;;5076340;28;20052;-73
2021/03/19 06:57:27;;;;;;;4.70;3.40;;;3.90;67.20;;;;;;5076958;28;20336;-73
2021/03/19 06:59:55;;;;;;;4.22;3.58;;;4.00;66.90;;;;;;5076796;28;20048;-73
2021/03/19 07:02:39;;;;;;;4.82;3.97;;;4.10;66.10;;;;;;5076734;28;20420;-73
2021/03/19 07:05:15;;;;;;;7.13;4.00;;;4.00;66.90;;;;;;5076635;28;20025;-73
2021/03/19 07:08:16;;;;;;;4.93;3.60;;;4.00;68.40;;;;;;5076754;28;20482;-73
2021/03/19 07:10:41;;;;;;;4.82;3.10;;;4.00;66.10;;;;;;5076717;28;20028;-73
2021/03/19 07:13:26;;;;;;;5.88;3.50;;;4.00;66.20;;;;;;5076598;28;20078;-73
2021/03/19 07:16:15;;;;;;;5.82;3.58;;;4.00;67.60;;;;;;5076656;28;20029;-73
2021/03/19 07:19:01;;;;;;;3.70;3.15;;;4.00;65.90;;;;;;5077513;28;20020;-73
2021/03/19 07:21:37;;;;;;;3.58;3.00;;;4.10;65.10;;;;;;5081092;28;20363;-73
2021/03/19 07:24:29;;;;;;;3.77;3.10;;;4.20;65.80;;;;;;5080453;28;20047;-73
2021/03/19 07:27:05;;;;;;;5.95;3.22;;;4.10;64.70;;;;;;5080610;28;20590;-73
2021/03/19 07:29:31;;;;;;;3.70;2.90;;;4.10;67.00;;;;;;5080643;28;20021;-73
2021/03/19 07:32:41;;;;;;;4.28;3.40;;;4.20;65.70;;;;;;5080517;28;20344;-73
2021/03/19 07:35:17;;;;;;;4.50;3.22;;;4.30;65.30;;;;;;5062553;28;20029;-73
2021/03/19 07:38:05;;;;;;;3.83;2.85;;;4.30;63.50;;;;;;5080340;28;20039;-73
2021/03/19 07:40:45;;;;;;;4.50;3.22;;;4.40;63.00;;;;;;5080421;28;20059;-73
2021/03/19 07:43:33;;;;;;;3.90;2.88;;;4.50;63.70;;;;;;5080464;28;20025;-73
2021/03/19 07:46:34;;;;;;;4.00;3.20;;;4.60;61.80;;;;;;5080766;28;20347;-73
2021/03/19 07:49:20;;;;;;;6.40;3.90;;;4.60;63.50;;;;;;4982546;28;20022;-73
2021/03/19 07:52:06;;;;;;;4.70;3.40;;;4.70;63.90;;;;;;5074906;28;20415;-73
2021/03/19 07:55:10;;;;;;;4.38;3.40;;;4.80;65.00;;;;;;5080167;28;20033;-73
2021/03/19 07:57:56;;;;;;;4.63;3.38;;;5.00;65.20;;;;;;5062875;28;20412;-73
2021/03/19 08:00:29;;;;;;;5.68;3.15;;;5.10;63.40;;;;;;5080290;28;20044;-73
2021/03/19 08:03:13;;;;;;;6.43;3.38;;;5.30;61.90;;;;;;5080068;28;20031;-73
2021/03/19 08:05:46;;;;;;;4.68;3.38;;;5.40;62.70;;;;;;5080432;28;20465;-73
2021/03/19 08:08:38;;;;;;;5.15;3.38;;;5.70;62.70;;;;;;5080019;28;20362;-73
2021/03/19 08:11:19;;;;;;;4.32;2.78;;;6.00;62.10;;;;;;5079860;28;20074;-73
2021/03/19 08:14:18;;;;;;;3.20;2.42;;;6.50;58.80;;;;;;5079602;28;20043;-73
2021/03/19 08:16:59;;;;;;;3.30;2.47;;;7.10;56.80;;;;;;5079914;28;20120;-73
2021/03/19 08:19:38;;;;;;;4.25;3.00;;;7.50;53.20;;;;;;5079684;28;20074;-73
2021/03/19 08:22:15;;;;;;;6.22;2.47;;;7.60;53.70;;;;;;5079841;28;20096;-73
2021/03/19 08:25:13;;;;;;;4.63;2.97;;;8.00;53.50;;;;;;5079426;28;20386;-73
2021/03/19 08:27:47;;;;;;;4.32;2.75;;;8.70;51.70;;;;;;5079578;28;20020;-73
2021/03/19 08:30:27;;;;;;;3.53;2.60;;;9.40;51.40;;;;;;5061292;28;20028;-71
2021/03/19 08:33:17;;;;;;;4.80;2.50;;;9.90;49.00;;;;;;5079660;28;20150;-73
2021/03/19 08:35:51;;;;;;;4.35;2.97;;;10.20;48.50;;;;;;5079372;28;20056;-72
2021/03/19 08:38:31;;;;;;;5.10;3.30;;;10.40;49.00;;;;;;5079402;28;20103;-73
2021/03/19 08:41:09;;;;;;;4.15;2.90;;;10.40;49.50;;;;;;5079848;28;20028;-72
2021/03/19 08:43:48;;;;;;;4.72;3.10;;;10.80;47.30;;;;;;5079418;28;20345;-73
2021/03/19 08:46:32;;;;;;;3.75;3.15;;;10.90;47.50;;;;;;5079231;28;20408;-73
2021/03/19 08:49:10;;;;;;;3.42;2.53;;;11.30;47.80;;;;;;5079206;28;20408;-73
2021/03/19 08:51:43;;;;;;;3.67;3.20;;;11.60;47.70;;;;;;5079060;28;20025;-73
2021/03/19 08:54:32;;;;;;;2.88;2.58;;;12.10;47.30;;;;;;5078886;28;20028;-73
2021/03/19 08:57:04;;;;;;;3.17;2.88;;;12.40;44.60;;;;;;5078920;28;20033;-73
2021/03/19 08:59:36;;;;;;;4.88;3.25;;;13.10;43.00;;;;;;5078962;28;20027;-73
2021/03/19 09:02:04;;;;;;;4.07;2.67;;;13.00;44.70;;;;;;5078874;28;20294;-73
2021/03/19 09:04:59;;;;;;;3.47;2.90;;;12.60;44.30;;;;;;5060984;28;20412;-71
2021/03/19 09:07:27;;;;;;;4.15;2.90;;;12.60;43.10;;;;;;5078875;28;20025;-73
2021/03/19 09:09:56;;;;;;;4.57;3.40;;;12.10;45.00;;;;;;5078867;28;20074;-72
2021/03/19 09:12:29;;;;;;;4.72;3.28;;;11.30;45.20;;;;;;5078997;28;20086;-73
2021/03/19 09:15:14;;;;;;;3.45;3.13;;;10.60;46.60;;;;;;5078814;28;20357;-72
2021/03/19 09:17:43;;;;;;;4.55;3.03;;;10.30;48.60;;;;;;5078537;28;20107;-72
2021/03/19 09:20:40;;;;;;;4.40;3.03;;;9.90;50.50;;;;;;5078807;28;20021;-73
2021/03/19 09:23:09;;;;;;;5.68;3.60;;;9.30;48.80;;;;;;5078674;28;20036;-71
2021/03/19 09:26:03;;;;;;;6.85;3.63;;;8.80;51.60;;;;;;5078302;28;20041;-72
2021/03/19 09:28:35;;;;;;;3.38;3.08;;;8.50;53.20;;;;;;5042296;28;20454;-73
2021/03/19 09:31:24;;;;;;;4.00;3.22;;;8.10;54.60;;;;;;5078290;28;20032;-73
2021/03/19 09:33:49;;;;;;;3.88;3.30;;;8.10;54.30;;;;;;5060444;28;20078;-73
2021/03/19 09:36:50;;;;;;;4.05;3.35;;;8.50;53.70;;;;;;5078196;28;20024;-73
2021/03/19 09:39:44;;;;;;;7.72;3.30;;;9.90;52.60;;;;;;5078192;28;20024;-74
2021/03/19 09:42:18;;;;;;;4.82;3.40;;;11.60;47.60;;;;;;5077448;28;20020;-73
2021/03/19 09:45:13;;;;;;;4.30;3.42;;;11.90;45.80;;;;;;5078173;28;20051;-74
2021/03/19 09:48:10;;;;;;;3.97;3.58;;;11.30;45.60;;;;;;5060679;28;20066;-74
2021/03/19 09:50:46;;;;;;;;;;;11.10;46.70;;;;;;5078626;28;20028;-72
2021/03/19 09:53:23;;;;;;;3.92;3.28;;;11.30;47.10;;;;;;5077890;28;19909;-73
2021/03/19 09:55:55;;;;;;;4.28;3.38;;;11.70;47.70;;;;;;5060084;28;20424;-74
2021/03/19 09:58:42;;;;;;;3.72;3.03;;;12.30;45.10;;;;;;5077952;28;20024;-73
2021/03/19 10:01:30;;;;;;;4.15;3.10;;;11.60;45.80;;;;;;5060033;28;20024;-71
2021/03/19 10:04:03;;;;;;;3.53;3.20;;;10.90;47.10;;;;;;5077580;28;20073;-71
2021/03/19 10:06:33;;;;;;;5.40;3.55;;;10.90;47.40;;;;;;5078049;28;20380;-71
2021/03/19 10:09:10;;;;;;;3.70;3.30;;;11.70;48.70;;;;;;5077705;28;20020;-72
2021/03/19 10:11:48;;;;;;;3.50;3.20;;;12.30;45.70;;;;;;5077161;28;20085;-74
2021/03/19 10:14:26;;;;;;;3.85;2.88;;;11.90;44.80;;;;;;5083226;28;20104;-73
2021/03/19 10:17:03;;;;;;;8.63;3.30;;;11.50;45.10;;;;;;5077353;28;20162;-73
2021/03/19 10:19:34;;;;;;;4.55;3.30;;;11.50;45.70;;;;;;5077594;28;20025;-73
2021/03/19 10:22:00;;;;;;;4.63;3.33;;;11.30;48.90;;;;;;5059575;28;20401;-74
2021/03/19 10:24:27;;;;;;;4.38;3.50;;;10.80;49.30;;;;;;5076866;28;20051;-71
2021/03/19 10:27:03;;;;;;;3.47;3.17;;;10.20;47.90;;;;;;5059485;28;20162;-71
2021/03/19 10:29:38;;;;;;;5.97;3.70;;;10.00;49.90;;;;;;5077343;28;20045;-74
2021/03/19 10:32:16;;;;;;;6.13;3.38;;;9.40;49.60;;;;;;5077180;28;20468;-73
2021/03/19 10:35:08;;;;;;;5.13;4.05;;;9.00;50.30;;;;;;5077074;28;20321;-73
2021/03/19 10:37:38;;;;;;;5.07;3.75;;;9.00;52.90;;;;;;5076934;28;20383;-73
2021/03/19 10:40:13;;;;;;;5.28;3.80;;;9.30;52.40;;;;;;5077006;28;20103;-73
2021/03/19 10:42:47;;;;;;;4.57;3.50;;;10.00;48.60;;;;;;5059202;28;20024;-71
2021/03/19 10:45:43;;;;;;;8.13;3.88;;;10.90;49.00;;;;;;5077164;28;20375;-71
2021/03/19 10:48:36;;;;;;;4.40;3.97;;;11.90;48.10;;;;;;5076894;28;20325;-73
2021/03/19 10:51:05;;;;;;;4.65;4.00;;;12.60;46.90;;;;;;5077138;28;20032;-71
2021/03/19 10:53:46;;;;;;;4.60;3.95;;;13.10;45.60;;;;;;5059021;28;20322;-73
2021/03/19 10:56:13;;;;;;;3.90;3.30;;;13.70;43.60;;;;;;5076936;28;20033;-71
2021/03/19 10:58:42;;;;;;;4.07;3.45;;;14.20;44.60;;;;;;5076782;28;20435;-71
2021/03/19 11:01:38;;;;;;;5.20;3.70;;;14.50;43.00;;;;;;5058924;28;20024;-71
2021/03/19 11:04:26;;;;;;;3.63;3.33;;;14.10;41.60;;;;;;5076794;28;20020;-73
2021/03/19 11:06:53;;;;;;;4.50;3.53;;;13.20;42.80;;;;;;5076981;28;20029;-72
2021/03/19 11:09:26;;;;;;;9.82;4.10;;;11.90;44.30;;;;;;5076672;28;20025;-71
2021/03/19 11:11:56;;;;;;;5.47;4.00;;;10.80;46.40;;;;;;5076967;28;20032;-73
2021/03/19 11:14:26;;;;;;;5.25;3.60;;;10.30;48.10;;;;;;5076548;28;20021;-71
2021/03/19 11:16:54;;;;;;;4.18;3.45;;;10.30;48.30;;;;;;5076562;28;20031;-73
2021/03/19 11:19:29;;;;;;;4.60;3.63;;;9.90;48.50;;;;;;5076539;28;20413;-73
2021/03/19 11:22:09;;;;;;;4.95;3.55;;;9.40;49.60;;;;;;5076582;28;20347;-73
2021/03/19 11:24:38;;;;;;;5.93;3.38;;;8.70;49.80;;;;;;5076362;28;20052;-73
2021/03/19 11:27:23;;;;;;;4.45;3.83;;;8.20;52.40;;;;;;5076490;28;20024;-73
2021/03/19 11:29:51;;;;;;;5.60;3.92;;;8.00;52.10;;;;;;5058764;28;20081;-73
2021/03/19 11:32:18;;;;;;;4.82;3.60;;;8.10;53.70;;;;;;5058715;28;20021;-73
2021/03/19 11:34:53;;;;;;;4.72;3.78;;;8.10;51.90;;;;;;5076417;28;20017;-73
2021/03/19 11:37:18;;;;;;;8.80;4.22;;;7.90;54.40;;;;;;5076449;28;20020;-73
2021/03/19 11:39:56;;;;;;;5.13;4.28;;;7.30;54.40;;;;;;5076378;28;20123;-73
2021/03/19 11:42:28;;;;;;;6.57;3.75;;;6.80;57.20;;;;;;5076790;28;20044;-73
2021/03/19 11:45:14;;;;;;;4.75;3.72;;;6.40;58.50;;;;;;5076354;28;20067;-73
2021/03/19 11:47:50;;;;;;;5.10;3.75;;;6.20;59.80;;;;;;5058582;28;20032;-73
2021/03/19 11:50:27;;;;;;;5.18;4.20;;;5.90;60.50;;;;;;5076352;28;20032;-73
2021/03/19 11:53:08;;;;;;;4.90;4.13;;;5.50;62.10;;;;;;5076258;28;20051;-73
2021/03/19 11:55:41;;;;;;;5.00;3.90;;;5.40;63.50;;;;;;5076369;28;20043;-73
2021/03/19 11:58:08;;;;;;;4.60;3.78;;;5.20;63.80;;;;;;5076121;28;20420;-73
2021/03/19 12:00:37;;;;;;;5.57;4.45;;;5.10;65.50;;;;;;5076457;28;20373;-72
2021/03/19 12:03:11;;;;;;;4.97;4.40;;;4.80;67.00;;;;;;5076097;28;20016;-73
2021/03/19 12:05:37;;;;;;;5.35;4.28;;;4.70;69.90;;;;;;5078525;28;20115;-73
2021/03/19 12:08:03;;;;;;;5.53;4.38;;;4.60;70.20;;;;;;5079916;28;20066;-73
2021/03/19 12:10:29;;;;;;;5.93;4.28;;;4.70;72.90;;;;;;5079794;28;20020;-73
2021/03/19 12:13:01;;;;;;;5.60;4.22;;;5.10;70.80;;;;;;5079707;28;20328;-73
2021/03/19 12:15:29;;;;;;;5.70;4.53;;;5.50;69.10;;;;;;5079729;28;20028;-73
2021/03/19 12:17:55;;;;;;;8.68;4.50;;;5.70;71.10;;;;;;5079908;28;20114;-73
2021/03/19 12:20:20;;;;;;;7.05;3.90;;;6.00;68.90;;;;;;5079940;28;20032;-73
2021/03/19 12:22:46;;;;;;;5.50;4.68;;;6.20;70.10;;;;;;5079664;28;20147;-73
2021/03/19 12:25:20;;;;;;;7.45;4.30;;;6.20;68.10;;;;;;5079363;28;20045;-73
2021/03/19 12:27:46;;;;;;;5.97;4.65;;;6.40;69.10;;;;;;5079554;28;20034;-73
2021/03/19 12:30:13;;;;;;;6.43;4.47;;;6.30;68.00;;;;;;5079740;28;20062;-73
2021/03/19 12:32:39;;;;;;;4.93;4.43;;;6.60;68.20;;;;;;5079349;28;20103;-73
2021/03/19 12:35:06;;;;;;;6.38;4.13;;;6.70;69.20;;;;;;5079339;28;20071;-73
2021/03/19 12:37:32;;;;;;;6.05;4.28;;;6.90;67.90;;;;;;5079292;28;20032;-73
2021/03/19 12:39:57;;;;;;;5.85;4.75;;;7.10;67.20;;;;;;5079617;28;20473;-73
2021/03/19 12:42:23;;;;;;;4.60;4.15;;;7.20;66.30;;;;;;5061753;28;20020;-73
2021/03/19 12:44:49;;;;;;;5.10;4.60;;;7.20;65.60;;;;;;5079085;28;20025;-73
2021/03/19 12:47:14;;;;;;;7.13;5.13;;;7.10;64.60;;;;;;5079359;28;20035;-73
2021/03/19 12:49:40;;;;;;;5.28;4.70;;;7.00;66.20;;;;;;5079344;28;20036;-73
2021/03/19 12:52:06;;;;;;;6.95;4.72;;;6.80;64.90;;;;;;5079008;28;20032;-73
2021/03/19 12:54:32;;;;;;;8.63;4.32;;;6.80;67.70;;;;;;5078983;28;20093;-73
2021/03/19 12:56:57;;;;;;;5.25;4.30;;;7.00;65.10;;;;;;5078888;28;20031;-73
2021/03/19 12:59:23;;;;;;;6.25;4.82;;;7.10;64.00;;;;;;5078944;28;20036;-73
2021/03/19 13:01:48;;;;;;;6.55;5.22;;;7.20;61.20;;;;;;5078817;28;20024;-73
2021/03/19 13:04:14;;;;;;;5.53;4.93;;;7.40;64.50;;;;;;5079034;28;20024;-73
2021/03/19 13:06:40;;;;;;;5.68;4.70;;;7.80;62.80;;;;;;5079045;28;20039;-73
2021/03/19 13:09:11;;;;;;;6.28;4.50;;;7.90;63.80;;;;;;5078775;28;20324;-73
2021/03/19 13:11:37;;;;;;;5.00;4.50;;;8.30;62.00;;;;;;5078770;28;20431;-73
2021/03/19 13:14:02;;;;;;;5.55;4.32;;;8.50;60.70;;;;;;5078593;28;20102;-73
2021/03/19 13:16:28;;;;;;;5.28;4.32;;;8.80;57.90;;;;;;5077328;28;20058;-73
2021/03/19 13:18:54;;;;;;;4.63;4.20;;;9.10;58.50;;;;;;5078588;28;20033;-73
2021/03/19 13:21:20;;;;;;;6.10;4.25;;;9.40;55.30;;;;;;5078518;28;20066;-73
2021/03/19 13:23:45;;;;;;;5.03;3.90;;;9.50;56.20;;;;;;5078167;28;20106;-73
2021/03/19 13:26:11;;;;;;;3.95;3.45;;;9.60;52.80;;;;;;5077416;28;20025;-73
2021/03/19 13:28:36;;;;;;;4.75;4.20;;;9.50;50.30;;;;;;5078403;28;20411;-73
2021/03/19 13:31:03;;;;;;;3.50;3.20;;;9.50;51.90;;;;;;5078383;28;20070;-73